createdAt,value
2022-12-11T00:00:06.411Z,19.48
2022-12-11T00:02:33.032Z,17.65
2022-12-11T00:04:59.664Z,20.33
2022-12-11T00:07:26.308Z,19.52
2022-12-11T00:09:52.917Z,16.10
2022-12-11T00:12:19.546Z,20.15
2022-12-11T00:14:46.127Z,18.42
2022-12-11T00:17:12.753Z,21.83
2022-12-11T00:19:39.377Z,19.70
2022-12-11T00:22:06.042Z,17.67
2022-12-11T00:24:32.712Z,19.05
2022-12-11T00:26:59.501Z,19.45
2022-12-11T00:29:26.107Z,18.27
2022-12-11T00:31:52.735Z,18.40
2022-12-11T00:34:19.341Z,19.02
2022-12-11T00:36:45.986Z,18.13
2022-12-11T00:39:12.778Z,18.63
2022-12-11T00:41:39.369Z,18.50
2022-12-11T00:44:06.140Z,19.00
2022-12-11T00:46:32.832Z,19.52
2022-12-11T00:48:59.451Z,18.50
2022-12-11T00:51:26.249Z,19.58
2022-12-11T00:53:52.895Z,18.17
2022-12-11T00:56:22.568Z,21.08
2022-12-11T00:58:49.538Z,19.83
2022-12-11T01:01:22.492Z,22.15
2022-12-11T01:03:49.396Z,21.75
2022-12-11T01:06:18.852Z,22.98
2022-12-11T01:08:46.257Z,21.23
2022-12-11T01:11:15.569Z,20.85
2022-12-11T01:13:43.295Z,24.85
2022-12-11T01:16:14.052Z,22.33
2022-12-11T01:18:41.120Z,24.08
2022-12-11T01:21:13.445Z,23.80
2022-12-11T01:23:40.633Z,22.08
2022-12-11T01:26:15.016Z,22.00
2022-12-11T01:28:42.349Z,23.58
2022-12-11T01:31:13.844Z,19.92
2022-12-11T01:33:41.421Z,24.20
2022-12-11T01:36:19.738Z,23.58
2022-12-11T01:38:48.056Z,21.48
2022-12-11T01:41:15.394Z,24.98
2022-12-11T01:44:03.615Z,25.58
2022-12-11T01:46:32.448Z,22.58
2022-12-11T01:49:00.909Z,25.98
2022-12-11T01:51:31.438Z,25.45
2022-12-11T01:54:03.667Z,24.52
2022-12-11T01:56:32.966Z,26.75
2022-12-11T01:59:07.137Z,25.90
2022-12-11T02:01:39.775Z,22.98
2022-12-11T02:04:08.698Z,24.75
2022-12-11T02:06:44.814Z,24.73
2022-12-11T02:09:14.890Z,21.48
2022-12-11T02:11:53.307Z,26.25
2022-12-11T02:14:34.981Z,26.20
2022-12-11T02:17:10.268Z,24.30
2022-12-11T02:20:10.713Z,25.23
2022-12-11T02:22:37.477Z,26.55
2022-12-11T02:25:19.074Z,23.92
2022-12-11T02:27:56.734Z,25.63
2022-12-11T02:30:24.838Z,24.67
2022-12-11T02:32:55.772Z,26.70
2022-12-11T02:35:28.374Z,23.95
2022-12-11T02:37:59.685Z,24.08
2022-12-11T02:40:30.143Z,22.40
2022-12-11T02:43:00.110Z,25.08
2022-12-11T02:45:29.014Z,21.00
2022-12-11T02:47:58.888Z,26.02
2022-12-11T02:50:27.067Z,21.02
2022-12-11T02:52:56.940Z,21.08
2022-12-11T02:55:27.264Z,22.50
2022-12-11T02:58:03.893Z,22.73
2022-12-11T03:00:30.723Z,21.30
2022-12-11T03:02:58.041Z,21.45
2022-12-11T03:05:24.811Z,22.08
2022-12-11T03:07:51.486Z,19.88
2022-12-11T03:10:19.921Z,21.55
2022-12-11T03:12:53.377Z,17.08
2022-12-11T03:15:24.044Z,20.35
2022-12-11T03:17:59.682Z,19.38
2022-12-11T03:20:38.948Z,20.80
2022-12-11T03:23:28.546Z,22.60
2022-12-11T03:26:10.413Z,21.98
2022-12-11T03:28:45.638Z,20.77
2022-12-11T03:31:37.781Z,21.00
2022-12-11T03:34:13.598Z,22.48
2022-12-11T03:36:40.962Z,17.35
2022-12-11T03:39:12.685Z,16.50
2022-12-11T03:41:41.160Z,19.33
2022-12-11T03:44:09.194Z,17.58
2022-12-11T03:46:39.502Z,17.73
2022-12-11T03:49:09.532Z,15.00
2022-12-11T03:51:36.817Z,15.63
2022-12-11T03:54:03.691Z,15.35
2022-12-11T03:56:34.293Z,19.63
2022-12-11T03:59:00.862Z,18.80
2022-12-11T04:01:27.647Z,20.00
2022-12-11T04:03:54.332Z,18.10
2022-12-11T04:06:20.981Z,17.20
2022-12-11T04:08:47.598Z,20.17
2022-12-11T04:11:32.713Z,19.73
2022-12-11T04:14:25.214Z,18.02
2022-12-11T04:16:51.894Z,17.48
2022-12-11T04:19:37.958Z,17.02
2022-12-11T04:22:23.387Z,16.83
2022-12-11T04:24:50.379Z,16.58
2022-12-11T04:27:38.501Z,17.67
2022-12-11T04:30:09.545Z,18.85
2022-12-11T04:32:36.154Z,17.85
2022-12-11T04:35:02.984Z,17.98
2022-12-11T04:37:30.121Z,17.80
2022-12-11T04:39:56.757Z,18.45
2022-12-11T04:42:23.410Z,19.70
2022-12-11T04:44:50.002Z,17.88
2022-12-11T04:47:16.954Z,17.73
2022-12-11T04:49:43.565Z,17.48
2022-12-11T04:52:10.202Z,16.40
2022-12-11T04:54:36.792Z,16.00
2022-12-11T04:57:03.439Z,17.60
2022-12-11T04:59:31.467Z,18.75
2022-12-11T05:01:58.151Z,17.33
2022-12-11T05:04:24.766Z,18.85
2022-12-11T05:06:51.786Z,15.55
2022-12-11T05:09:18.379Z,18.38
2022-12-11T05:11:44.938Z,15.98
2022-12-11T05:14:11.619Z,16.48
2022-12-11T05:16:38.328Z,17.27
2022-12-11T05:19:04.969Z,16.67
2022-12-11T05:21:35.056Z,15.98
2022-12-11T05:24:02.683Z,18.85
2022-12-11T05:26:29.426Z,17.40
2022-12-11T05:28:56.049Z,17.05
2022-12-11T05:31:25.637Z,19.73
2022-12-11T05:33:53.505Z,18.40
2022-12-11T05:36:26.121Z,16.98
2022-12-11T05:38:53.177Z,17.52
2022-12-11T05:41:24.578Z,17.27
2022-12-11T05:43:52.067Z,15.30
2022-12-11T05:46:26.578Z,15.32
2022-12-11T05:48:56.522Z,17.10
2022-12-11T05:51:23.827Z,17.08
2022-12-11T05:53:51.769Z,15.52
2022-12-11T05:56:26.320Z,17.58
2022-12-11T05:58:54.161Z,16.45
2022-12-11T06:01:25.110Z,16.98
2022-12-11T06:03:52.108Z,15.38
2022-12-11T06:06:18.788Z,20.65
2022-12-11T06:08:45.420Z,17.35
2022-12-11T06:11:18.371Z,16.10
2022-12-11T06:13:48.350Z,13.82
2022-12-11T06:16:15.367Z,19.75
2022-12-11T06:18:44.866Z,18.70
2022-12-11T06:21:24.813Z,15.55
2022-12-11T06:23:54.109Z,17.10
2022-12-11T06:26:21.518Z,13.80
2022-12-11T06:28:48.546Z,13.98
2022-12-11T06:31:15.792Z,13.45
2022-12-11T06:33:43.343Z,11.82
2022-12-11T06:36:17.776Z,13.68
2022-12-11T06:38:45.085Z,14.18
2022-12-11T06:41:12.750Z,13.93
2022-12-11T06:43:40.573Z,14.07
2022-12-11T06:46:10.367Z,13.10
2022-12-11T06:48:37.431Z,14.63
2022-12-11T06:51:12.622Z,14.52
2022-12-11T06:53:39.472Z,13.27
2022-12-11T06:56:12.372Z,14.93
2022-12-11T06:58:40.250Z,12.48
2022-12-11T07:01:24.805Z,12.13
2022-12-11T07:03:55.925Z,12.90
2022-12-11T07:06:23.143Z,13.73
2022-12-11T07:08:50.019Z,12.98
2022-12-11T07:11:17.861Z,12.13
2022-12-11T07:13:44.857Z,11.07
2022-12-11T07:16:13.822Z,11.02
2022-12-11T07:18:43.470Z,13.65
2022-12-11T07:21:13.219Z,11.93
2022-12-11T07:23:40.590Z,11.95
2022-12-11T07:26:10.877Z,11.23
2022-12-11T07:28:37.638Z,10.38
2022-12-11T07:31:14.871Z,13.65
2022-12-11T07:33:43.004Z,13.13
2022-12-11T07:36:11.728Z,12.52
2022-12-11T07:38:38.830Z,12.27
2022-12-11T07:41:08.343Z,12.20
2022-12-11T07:43:36.078Z,13.10
2022-12-11T07:46:08.549Z,11.18
2022-12-11T07:48:36.694Z,21.40
2022-12-11T07:51:15.140Z,18.23
2022-12-11T07:53:43.031Z,15.00
2022-12-11T07:56:09.649Z,13.70
2022-12-11T07:58:36.976Z,15.35
2022-12-11T08:01:03.610Z,13.25
2022-12-11T08:03:30.265Z,13.68
2022-12-11T08:05:56.910Z,16.38
2022-12-11T08:08:23.566Z,13.55
2022-12-11T08:10:50.182Z,15.25
2022-12-11T08:13:16.753Z,14.48
2022-12-11T08:15:43.432Z,12.13
2022-12-11T08:18:10.385Z,16.73
2022-12-11T08:20:39.354Z,15.00
2022-12-11T08:23:06.047Z,15.77
2022-12-11T08:25:32.927Z,13.02
2022-12-11T08:27:59.503Z,15.10
2022-12-11T08:30:26.136Z,13.13
2022-12-11T08:32:52.808Z,13.75
2022-12-11T08:35:19.423Z,14.75
2022-12-11T08:37:46.017Z,16.23
2022-12-11T08:40:12.700Z,13.98
2022-12-11T08:42:39.317Z,12.85
2022-12-11T08:45:06.682Z,13.20
2022-12-11T08:47:33.261Z,12.77
2022-12-11T08:49:59.853Z,13.40
2022-12-11T08:52:26.459Z,13.25
2022-12-11T08:54:53.080Z,13.63
2022-12-11T08:57:19.638Z,12.60
2022-12-11T08:59:46.261Z,11.52
2022-12-11T09:02:13.502Z,12.63
2022-12-11T09:04:40.340Z,15.45
2022-12-11T09:07:06.920Z,13.18
2022-12-11T09:09:33.544Z,14.75
2022-12-11T09:12:01.532Z,15.55
2022-12-11T09:14:28.164Z,12.52
2022-12-11T09:16:54.729Z,13.55
2022-12-11T09:19:21.333Z,11.23
2022-12-11T09:21:48.317Z,15.30
2022-12-11T09:24:15.201Z,11.85
2022-12-11T09:26:42.018Z,11.65
2022-12-11T09:29:09.202Z,13.43
2022-12-11T09:31:36.909Z,13.50
2022-12-11T09:34:11.461Z,13.68
2022-12-11T09:36:42.565Z,13.98
2022-12-11T09:39:11.601Z,11.88
2022-12-11T09:41:49.740Z,11.98
2022-12-11T09:44:31.479Z,15.52
2022-12-11T09:46:59.093Z,14.80
2022-12-11T09:49:37.702Z,14.55
2022-12-11T09:52:23.388Z,14.65
2022-12-11T09:54:56.517Z,24.35
2022-12-11T10:00:14.129Z,17.00
2022-12-11T10:03:01.386Z,15.25
2022-12-11T10:05:45.325Z,13.50
2022-12-11T10:08:20.931Z,16.55
2022-12-11T10:11:16.312Z,19.85
2022-12-11T10:14:00.192Z,14.77
2022-12-11T10:16:46.157Z,16.02
2022-12-11T10:19:27.656Z,14.65
2022-12-11T10:21:55.733Z,12.15
2022-12-11T10:27:31.384Z,14.32
2022-12-11T10:30:08.358Z,16.48
2022-12-11T10:33:02.450Z,14.60
2022-12-11T10:35:32.105Z,16.20
2022-12-11T10:38:27.573Z,17.23
2022-12-11T10:41:00.868Z,18.67
2022-12-11T10:43:39.731Z,19.15
2022-12-11T10:46:14.125Z,16.83
2022-12-11T10:48:55.452Z,18.17
2022-12-11T10:51:34.277Z,17.80
2022-12-11T10:54:29.330Z,17.95
2022-12-11T10:56:56.746Z,16.65
2022-12-11T10:59:30.530Z,16.13
2022-12-11T11:01:58.101Z,14.27
2022-12-11T11:04:31.566Z,15.68
2022-12-11T11:07:11.123Z,16.70
2022-12-11T11:09:37.792Z,14.48
2022-12-11T11:12:08.081Z,15.02
2022-12-11T11:14:34.900Z,15.15
2022-12-11T11:17:01.624Z,16.55
2022-12-11T11:19:33.834Z,16.15
2022-12-11T11:22:19.698Z,13.57
2022-12-11T11:24:54.217Z,16.73
2022-12-11T11:27:41.344Z,15.63
2022-12-11T11:30:37.860Z,14.27
2022-12-11T11:33:12.547Z,15.80
2022-12-11T11:35:45.535Z,16.08
2022-12-11T11:38:21.996Z,16.55
2022-12-11T11:41:04.848Z,13.18
2022-12-11T11:43:38.714Z,12.57
2022-12-11T11:46:23.318Z,14.07
2022-12-11T11:49:07.902Z,13.45
2022-12-11T11:51:43.084Z,13.13
2022-12-11T11:54:17.095Z,12.32
2022-12-11T11:56:44.297Z,13.57
2022-12-11T11:59:22.723Z,15.90
2022-12-11T12:01:51.211Z,13.80
2022-12-11T12:04:17.871Z,14.68
2022-12-11T12:07:06.515Z,15.93
2022-12-11T12:10:00.674Z,18.02
2022-12-11T12:12:51.469Z,17.23
2022-12-11T12:15:28.881Z,14.85
2022-12-11T12:17:59.929Z,15.98
2022-12-11T12:20:38.865Z,15.10
2022-12-11T12:23:17.383Z,15.95
2022-12-11T12:26:00.381Z,13.52
2022-12-11T12:28:29.674Z,14.40
2022-12-11T12:31:17.423Z,14.70
2022-12-11T12:34:12.046Z,14.95
2022-12-11T12:36:57.412Z,17.13
2022-12-11T12:39:35.738Z,17.48
2022-12-11T12:42:16.125Z,14.75
2022-12-11T12:45:10.789Z,14.25
2022-12-11T12:47:38.983Z,14.98
2022-12-11T12:50:12.515Z,14.30
2022-12-11T12:52:40.794Z,15.40
2022-12-11T12:55:18.058Z,14.55
2022-12-11T12:57:54.617Z,12.75
2022-12-11T13:00:32.498Z,16.58
2022-12-11T13:03:03.359Z,13.52
2022-12-11T13:05:33.376Z,13.65
2022-12-11T13:08:03.411Z,14.77
2022-12-11T13:10:33.773Z,13.63
2022-12-11T13:13:02.436Z,12.07
2022-12-11T13:15:34.159Z,16.45
2022-12-11T13:18:03.948Z,13.60
2022-12-11T13:20:34.492Z,14.80
2022-12-11T13:23:07.140Z,13.40
2022-12-11T13:25:51.069Z,14.40
2022-12-11T13:28:28.842Z,15.23
2022-12-11T13:31:15.401Z,13.15
2022-12-11T13:33:47.058Z,13.77
2022-12-11T13:36:24.520Z,12.95
2022-12-11T13:39:04.841Z,15.75
2022-12-11T13:41:35.387Z,14.55
2022-12-11T13:44:03.100Z,14.82
2022-12-11T13:46:35.621Z,15.25
2022-12-11T13:49:06.922Z,14.55
2022-12-11T13:51:38.069Z,15.35
2022-12-11T13:54:17.966Z,15.05
2022-12-11T13:57:04.024Z,14.55
2022-12-11T13:59:32.235Z,14.73
2022-12-11T14:02:04.059Z,14.68
2022-12-11T14:04:34.316Z,15.07
2022-12-11T14:07:01.947Z,12.23
2022-12-11T14:09:29.543Z,15.43
2022-12-11T14:11:57.406Z,17.25
2022-12-11T14:14:33.340Z,16.95
2022-12-11T14:17:00.324Z,14.98
2022-12-11T14:19:27.784Z,12.30
2022-12-11T14:22:03.205Z,12.57
2022-12-11T14:24:31.230Z,14.38
2022-12-11T14:26:58.632Z,12.43
2022-12-11T14:29:33.003Z,11.65
2022-12-11T14:32:04.828Z,12.13
2022-12-11T14:34:36.969Z,11.02
2022-12-11T14:37:06.423Z,12.53
2022-12-11T14:39:52.757Z,10.70
2022-12-11T14:42:27.293Z,12.93
2022-12-11T14:45:03.145Z,13.65
2022-12-11T14:47:37.617Z,12.18
2022-12-11T14:50:17.389Z,11.02
2022-12-11T14:52:48.187Z,12.13
2022-12-11T14:55:21.653Z,12.50
2022-12-11T14:57:51.385Z,10.13
2022-12-11T15:00:22.299Z,11.15
2022-12-11T15:03:02.088Z,9.98
2022-12-11T15:05:30.026Z,11.30
2022-12-11T15:07:58.275Z,12.30
2022-12-11T15:10:31.377Z,11.52
2022-12-11T15:15:33.876Z,12.45
2022-12-11T15:18:05.191Z,12.45
2022-12-11T15:20:31.871Z,10.90
2022-12-11T15:23:01.794Z,13.93
2022-12-11T15:25:29.794Z,13.63
2022-12-11T15:27:59.835Z,10.75
2022-12-11T15:30:33.190Z,13.02
2022-12-11T15:33:19.738Z,12.23
2022-12-11T15:36:04.444Z,13.98
2022-12-11T15:38:40.783Z,12.90
2022-12-11T15:41:14.555Z,12.95
2022-12-11T15:43:41.477Z,13.70
2022-12-11T15:46:08.190Z,13.77
2022-12-11T15:48:34.833Z,13.50
2022-12-11T15:51:01.429Z,13.00
2022-12-11T15:53:28.037Z,13.10
2022-12-11T15:55:54.933Z,12.88
2022-12-11T15:58:24.281Z,14.98
2022-12-11T16:00:51.164Z,13.90
2022-12-11T16:03:20.220Z,14.73
2022-12-11T16:05:47.222Z,13.70
2022-12-11T16:08:16.231Z,13.75
2022-12-11T16:10:43.752Z,14.85
2022-12-11T16:13:11.453Z,12.95
2022-12-11T16:15:41.004Z,13.13
2022-12-11T16:18:11.080Z,13.95
2022-12-11T16:20:39.977Z,12.13
2022-12-11T16:23:08.302Z,14.55
2022-12-11T16:25:40.954Z,13.35
2022-12-11T16:28:08.724Z,18.33
2022-12-11T16:30:36.783Z,24.60
2022-12-11T16:33:10.224Z,20.08
2022-12-11T16:35:38.897Z,17.13
2022-12-11T16:38:05.532Z,17.55
2022-12-11T16:40:32.109Z,14.73
2022-12-11T16:42:58.721Z,15.75
2022-12-11T16:45:27.011Z,14.02
2022-12-11T16:47:53.829Z,14.85
2022-12-11T16:50:20.560Z,14.25
2022-12-11T16:52:47.409Z,16.08
2022-12-11T16:55:15.089Z,17.20
2022-12-11T16:57:42.047Z,16.08
2022-12-11T17:00:12.219Z,15.43
2022-12-11T17:02:38.939Z,14.30
2022-12-11T17:05:05.917Z,14.93
2022-12-11T17:07:33.227Z,15.32
2022-12-11T17:10:01.836Z,15.48
2022-12-11T17:12:28.784Z,15.13
2022-12-11T17:14:56.398Z,14.43
2022-12-11T17:17:22.994Z,16.05
2022-12-11T17:19:49.668Z,14.45
2022-12-11T17:22:16.419Z,14.23
2022-12-11T17:24:43.047Z,19.58
2022-12-11T17:27:09.826Z,14.75
2022-12-11T17:29:36.432Z,17.73
2022-12-11T17:32:03.364Z,16.38
2022-12-11T17:34:36.122Z,15.60
2022-12-11T17:37:05.323Z,15.07
2022-12-11T17:39:31.994Z,15.98
2022-12-11T17:41:58.556Z,17.92
2022-12-11T17:44:26.759Z,17.48
2022-12-11T17:46:53.742Z,16.23
2022-12-11T17:49:20.460Z,14.75
2022-12-11T17:51:48.045Z,14.75
2022-12-11T17:54:15.036Z,12.32
2022-12-11T17:56:41.798Z,13.00
2022-12-11T17:59:08.466Z,15.10
2022-12-11T18:01:35.236Z,14.57
2022-12-11T18:04:02.423Z,14.30
2022-12-11T18:06:29.959Z,17.85
2022-12-11T18:08:57.605Z,16.60
2022-12-11T18:11:24.409Z,16.50
2022-12-11T18:13:52.822Z,16.58
2022-12-11T18:16:29.467Z,12.70
2022-12-11T18:18:56.617Z,13.15
2022-12-11T18:21:29.049Z,11.45
2022-12-11T18:23:56.475Z,11.73
2022-12-11T18:26:23.466Z,12.95
2022-12-11T18:28:51.059Z,15.38
2022-12-11T18:31:18.759Z,13.98
2022-12-11T18:33:46.612Z,14.90
2022-12-11T18:36:15.364Z,15.70
2022-12-11T18:38:42.314Z,14.43
2022-12-11T18:41:10.797Z,16.45
2022-12-11T18:43:37.845Z,13.23
2022-12-11T18:46:14.259Z,14.77
2022-12-11T18:48:42.377Z,13.57
2022-12-11T18:51:12.493Z,14.15
2022-12-11T18:53:39.945Z,13.48
2022-12-11T18:56:13.254Z,12.40
2022-12-11T18:58:40.307Z,13.88
2022-12-11T19:01:33.146Z,14.10
2022-12-11T19:04:04.530Z,26.58
2022-12-11T19:06:35.628Z,11.43
2022-12-11T19:09:03.826Z,13.80
2022-12-11T19:11:31.797Z,14.45
2022-12-11T19:13:59.038Z,14.15
2022-12-11T19:16:33.598Z,14.15
2022-12-11T19:19:07.068Z,16.23
2022-12-11T19:21:35.477Z,15.05
2022-12-11T19:24:02.181Z,18.80
2022-12-11T19:26:28.928Z,19.63
2022-12-11T19:28:59.983Z,16.17
2022-12-11T19:31:29.029Z,14.45
2022-12-11T19:33:56.723Z,15.50
2022-12-11T19:36:26.015Z,14.68
2022-12-11T19:38:59.300Z,12.98
2022-12-11T19:41:28.880Z,14.20
2022-12-11T19:43:57.473Z,12.63
2022-12-11T19:46:25.005Z,14.50
2022-12-11T19:48:54.189Z,12.68
2022-12-11T19:51:23.913Z,12.85
2022-12-11T19:53:51.350Z,13.20
2022-12-11T19:56:18.819Z,10.82
2022-12-11T19:58:45.664Z,11.05
2022-12-11T20:01:25.845Z,10.32
2022-12-11T20:03:53.572Z,11.07
2022-12-11T20:06:20.260Z,11.00
2022-12-11T20:08:47.333Z,9.10
2022-12-11T20:11:18.354Z,9.68
2022-12-11T20:13:47.014Z,10.65
2022-12-11T20:16:14.373Z,9.63
2022-12-11T20:18:41.737Z,9.30
2022-12-11T20:21:14.375Z,8.90
2022-12-11T20:23:41.424Z,9.50
2022-12-11T20:26:19.865Z,9.45
2022-12-11T20:28:50.197Z,9.98
2022-12-11T20:31:20.818Z,9.85
2022-12-11T20:33:49.255Z,9.68
2022-12-11T20:36:18.318Z,10.77
2022-12-11T20:38:45.265Z,9.88
2022-12-11T20:41:15.010Z,9.50
2022-12-11T20:43:42.293Z,11.48
2022-12-11T20:46:11.834Z,12.07
2022-12-11T20:48:39.901Z,10.70
2022-12-11T20:51:08.247Z,9.15
2022-12-11T20:53:36.082Z,9.98
2022-12-11T20:56:08.355Z,10.77
2022-12-11T20:58:34.910Z,10.85
2022-12-11T21:01:01.906Z,11.95
2022-12-11T21:03:28.580Z,11.35
2022-12-11T21:05:55.282Z,11.25
2022-12-11T21:08:21.938Z,11.88
2022-12-11T21:10:48.666Z,11.10
2022-12-11T21:13:16.742Z,11.63
2022-12-11T21:15:43.513Z,11.05
2022-12-11T21:18:10.194Z,11.13
2022-12-11T21:20:36.747Z,12.43
2022-12-11T21:23:03.936Z,11.38
2022-12-11T21:25:30.573Z,11.95
2022-12-11T21:27:57.149Z,15.00
2022-12-11T21:30:23.761Z,13.88
2022-12-11T21:32:50.351Z,11.85
2022-12-11T21:35:17.062Z,13.05
2022-12-11T21:37:43.733Z,14.38
2022-12-11T21:40:10.721Z,12.77
2022-12-11T21:42:37.297Z,13.13
2022-12-11T21:47:50.973Z,13.90
2022-12-11T21:50:18.133Z,12.63
2022-12-11T21:52:44.743Z,13.52
2022-12-11T21:55:12.785Z,14.95
2022-12-11T21:57:39.656Z,16.55
2022-12-11T22:00:06.785Z,12.60
2022-12-11T22:02:37.553Z,13.38
2022-12-11T22:05:07.692Z,10.70
2022-12-11T22:07:34.287Z,11.30
2022-12-11T22:10:02.204Z,12.35
2022-12-11T22:12:29.577Z,11.32
2022-12-11T22:14:56.437Z,11.27
2022-12-11T22:17:23.217Z,10.73
2022-12-11T22:19:52.035Z,10.10
2022-12-11T22:22:19.322Z,11.93
2022-12-11T22:24:46.095Z,11.68
2022-12-11T22:27:12.693Z,11.05
2022-12-11T22:29:39.314Z,12.13
2022-12-11T22:32:05.913Z,15.07
2022-12-11T22:34:32.500Z,13.38
2022-12-11T22:36:59.064Z,11.20
2022-12-11T22:39:25.684Z,10.48
2022-12-11T22:41:52.326Z,10.25
2022-12-11T22:44:21.390Z,10.40
2022-12-11T22:46:50.436Z,10.43
2022-12-11T22:49:18.772Z,11.57
2022-12-11T22:51:45.470Z,10.98
2022-12-11T22:54:12.254Z,11.20
2022-12-11T22:56:38.988Z,9.43
2022-12-11T22:59:07.524Z,9.65
2022-12-11T23:01:34.463Z,8.23
2022-12-11T23:04:01.066Z,9.82
2022-12-11T23:06:27.691Z,10.10
2022-12-11T23:08:58.730Z,9.02
2022-12-11T23:11:29.418Z,8.10
2022-12-11T23:13:56.703Z,10.20
2022-12-11T23:16:25.845Z,10.30
2022-12-11T23:18:53.697Z,8.68
2022-12-11T23:21:21.782Z,9.32
2022-12-11T23:23:48.850Z,9.27
2022-12-11T23:26:15.990Z,9.05
2022-12-11T23:28:42.565Z,11.05
2022-12-11T23:31:09.322Z,11.85
2022-12-11T23:33:36.792Z,10.07
2022-12-11T23:36:04.498Z,10.05
2022-12-11T23:38:31.129Z,9.88
2022-12-11T23:41:00.246Z,9.95
2022-12-11T23:43:26.949Z,10.02
2022-12-11T23:45:54.136Z,10.48
2022-12-11T23:48:21.225Z,11.52
2022-12-11T23:50:48.209Z,10.80
2022-12-11T23:53:15.279Z,9.38
2022-12-11T23:55:44.838Z,12.82
2022-12-11T23:58:11.987Z,13.60
